This is the latest recevied weather packets stored in our database for station/object K2RMB. If no packets are shown the sender has not sent any weather packets the latest 1 day(s).
| Time | Temp. | Humidity | Pressure | Rain* | Wind** | Luminosity | Snow |
|---|---|---|---|---|---|---|---|
| 1777983237 | 16.11° C | 61% | 1009.8 hPa | 0 mm | 0 m/s | 279 W/m² | - |
| 1777982933 | 15.56° C | 64% | 1009.3 hPa | 0 mm | 0 m/s | 353 W/m² | - |
| 1777982629 | 15° C | 62% | 1009.3 hPa | 0 mm | 0.45 m/s, 36° | 112 W/m² | - |
| 1777982328 | 14.44° C | 68% | 1009.8 hPa | 0 mm | 1.79 m/s, 36° | 271 W/m² | - |
| 1777982025 | 13.89° C | 73% | 1009.3 hPa | 0 mm | 0.45 m/s, 36° | 123 W/m² | - |
| 1777981723 | 13.33° C | 75% | 1009.8 hPa | 0 mm | 0 m/s | 104 W/m² | - |
| 1777981420 | 13.33° C | 80% | 1009.8 hPa | 0 mm | 0.45 m/s, 36° | 148 W/m² | - |
| 1777981116 | 13.33° C | 82% | 1009.8 hPa | 0 mm | 0 m/s | 101 W/m² | - |
| 1777980813 | 12.78° C | 82% | 1009.3 hPa | 0 mm | 0 m/s | 112 W/m² | - |
| 1777980508 | 12.22° C | 90% | 1009.8 hPa | 0 mm | 1.79 m/s, 42° | 149 W/m² | - |
| 1777980206 | 12.22° C | 90% | 1009.8 hPa | 0 mm | 0 m/s | 73 W/m² | - |
| 1777979901 | 12.22° C | 89% | 1009.8 hPa | 0 mm | 0 m/s | 80 W/m² | - |
| 1777979597 | 12.22° C | 89% | 1010.1 hPa | 0 mm | 0 m/s | 73 W/m² | - |
| 1777979293 | 12.22° C | 87% | 1009.8 hPa | 0 mm | 0 m/s | 55 W/m² | - |
| 1777978991 | 12.78° C | 85% | 1009.3 hPa | 0 mm | 0 m/s | 10 W/m² | - |
| 1777978687 | 13.33° C | 80% | 1009.8 hPa | 0.25 mm | 0.89 m/s, 48° | 10 W/m² | - |
| 1777978383 | 14.44° C | 69% | 1009.8 hPa | 0 mm | 0.89 m/s, 48° | 14 W/m² | - |
| 1777978080 | 15° C | 63% | 1010.1 hPa | 0 mm | 0 m/s | 7 W/m² | - |
| 1777977777 | 15.56° C | 58% | 1010.1 hPa | 0 mm | 0 m/s | 8 W/m² | - |
| 1777977473 | 15.56° C | 59% | 1010.1 hPa | 0 mm | 0.89 m/s, 48° | 22 W/m² | - |
| 1777977171 | 15° C | 58% | 1009.8 hPa | 0 mm | 0 m/s | 61 W/m² | - |
| 1777976868 | 15° C | 58% | 1009.3 hPa | 0 mm | 0.89 m/s, 48° | 79 W/m² | - |
| 1777976566 | 14.44° C | 59% | 1009.3 hPa | 0 mm | 0.89 m/s, 48° | 64 W/m² | - |
| 1777976265 | 14.44° C | 58% | 1009.3 hPa | 0 mm | 2.24 m/s, 48° | 47 W/m² | - |
| 1777975961 | 14.44° C | 58% | 1009.3 hPa | 0 mm | 1.34 m/s, 48° | 21 W/m² | - |
* Rain latest hour (hover to see other rain measurements)
** Current wind speed in m/s (hover to see current wind gust speed)